»·PEaware :: SWA4705 KPHX-KDEN

SWA4705 :: KPHX-KDEN

FLIGHT INFORMATION

Flight Status: Arrived
Operator:
Southwest Airlines
More flights by this operator :: More flights under this callsign
Pilot: Chandler S. (807)
Aircraft: BOEING 737-800
(B738)
More flights by this aircraft type
Origin: KPHX Phoenix Sky Harbor Intl
United States
Destination: KDEN Denver Intl
United States
More flights between these airports :: More routes between these airports
Route: +ZIDOG1 ZIDOG MRBIL YOTES YOOPR OURAY LDORA2
File this flight plan on PilotEdge
Remarks:
Altitude:
(Current/Filed)
35,000ft
Speed:
(Current/Filed)
300kts
Departed: 28-Apr-18 01:02 PM
Arrived: 28-Apr-18 02:23 PM
Distance/Time
Traveled:
523nm/1:21
Distance/Time
To Go:
Arrived

Flight Plot

Page will automatically refresh every two minutes.

Flight plan parsing failed; only flown route is shown


Map Options




Map Legend


Flown Route
Filed Route
Departure Airport
Arrival Airport
Navaid (VOR, NDB)
Fix

Horizontal Profiles

Position Reports

Time Latitude Longitude Heading Altitude Ground
Speed
28-Apr-18 12:38 33.433387 -111.993948 346 1138ft 0kts
28-Apr-18 12:39 33.433387 -111.993948 0 1138ft 0kts
28-Apr-18 12:40 33.433387 -111.993948 346 1138ft 0kts
28-Apr-18 12:41 33.433387 -111.993948 346 1138ft 0kts
28-Apr-18 12:42 33.433387 -111.993948 346 1138ft 0kts
28-Apr-18 12:43 33.433387 -111.993948 346 1138ft 0kts
28-Apr-18 12:44 33.433387 -111.993948 346 1138ft 0kts
28-Apr-18 12:45 33.433387 -111.993948 346 1138ft 0kts
28-Apr-18 12:46 33.433387 -111.993948 346 1138ft 0kts
28-Apr-18 12:47 33.433387 -111.993948 346 1138ft 0kts
28-Apr-18 12:48 33.433387 -111.993948 346 1138ft 0kts
28-Apr-18 12:49 33.433387 -111.993948 346 1139ft 0kts
28-Apr-18 12:50 33.433387 -111.993948 346 1139ft 0kts
28-Apr-18 12:51 33.433387 -111.993948 346 1139ft 0kts
28-Apr-18 12:52 33.433186 -111.993804 307 1139ft 2kts
28-Apr-18 12:53 33.433177 -111.993252 231 1139ft 2kts
28-Apr-18 12:54 33.433557 -111.993083 176 1139ft 0kts
28-Apr-18 12:55 33.433557 -111.993083 176 1139ft 0kts
28-Apr-18 12:56 33.433557 -111.993083 176 1139ft 0kts
28-Apr-18 12:57 33.433557 -111.993083 176 1139ft 0kts
28-Apr-18 12:58 33.433557 -111.993083 176 1139ft 0kts
28-Apr-18 12:59 33.431996 -111.993428 186 1139ft 0kts
28-Apr-18 13:00 33.431997 -111.993428 186 1139ft 0kts
28-Apr-18 13:01 33.431027 -111.997190 270 1139ft 75kts
28-Apr-18 13:02 33.431321 -112.057670 269 2972ft 224kts
28-Apr-18 13:03 33.433643 -112.135480 269 5628ft 240kts
28-Apr-18 13:04 33.472553 -112.194703 350 8173ft 267kts
28-Apr-18 13:05 33.548887 -112.191436 26 10426ft 286kts
28-Apr-18 13:06 33.593728 -112.113238 47 12994ft 302kts
28-Apr-18 13:07 33.652943 -112.039269 46 15554ft 314kts
28-Apr-18 13:08 33.714201 -111.962667 46 17854ft 325kts
28-Apr-18 13:09 33.777490 -111.883348 46 19936ft 335kts
28-Apr-18 13:10 33.843674 -111.800212 45 21882ft 358kts
28-Apr-18 13:11 33.913526 -111.712253 45 24248ft 370kts
28-Apr-18 13:12 33.985240 -111.621747 45 26383ft 380kts
28-Apr-18 13:13 34.069146 -111.547782 30 28727ft 373kts
28-Apr-18 13:14 34.156725 -111.480676 30 30665ft 379kts
28-Apr-18 13:15 34.246255 -111.411902 29 32312ft 388kts
28-Apr-18 13:16 34.337531 -111.341642 30 33819ft 396kts
28-Apr-18 13:17 34.430974 -111.269599 30 35040ft 405kts
28-Apr-18 13:18 34.531142 -111.192291 30 35060ft 450kts
28-Apr-18 13:19 34.642101 -111.108080 26 35026ft 492kts
28-Apr-18 13:20 34.764172 -111.027900 26 34981ft 502kts
28-Apr-18 13:21 34.886799 -110.946754 27 34982ft 501kts
28-Apr-18 13:22 35.009051 -110.865621 27 34983ft 506kts
28-Apr-18 13:23 35.132516 -110.783651 27 34980ft 508kts
28-Apr-18 13:24 35.256053 -110.701655 27 34981ft 508kts
28-Apr-18 13:25 35.379678 -110.619621 27 34982ft 508kts
28-Apr-18 13:26 35.503677 -110.537356 27 34983ft 508kts
28-Apr-18 13:27 35.622311 -110.458658 27 34983ft 508kts
28-Apr-18 13:28 35.724758 -110.342853 50 34984ft 509kts
28-Apr-18 13:29 35.816805 -110.211329 49 34982ft 509kts
28-Apr-18 13:30 35.909291 -110.079883 49 35010ft 509kts
28-Apr-18 13:31 36.001318 -109.948690 49 35071ft 509kts
28-Apr-18 13:32 36.093694 -109.816522 49 35094ft 509kts
28-Apr-18 13:33 36.185022 -109.685428 49 35091ft 509kts
28-Apr-18 13:34 36.276636 -109.553462 49 35092ft 509kts
28-Apr-18 13:35 36.368493 -109.420628 49 35092ft 509kts
28-Apr-18 13:36 36.457316 -109.291693 49 35090ft 509kts
28-Apr-18 13:37 36.548682 -109.158528 49 35075ft 508kts
28-Apr-18 13:38 36.639780 -109.025137 49 35050ft 504kts
28-Apr-18 13:39 36.729586 -108.893081 49 35049ft 502kts
28-Apr-18 13:40 36.819819 -108.759831 49 35049ft 502kts
28-Apr-18 13:41 36.909401 -108.626975 49 35051ft 502kts
28-Apr-18 13:42 36.998713 -108.493962 49 35050ft 503kts
28-Apr-18 13:43 37.088436 -108.359788 49 35052ft 503kts
28-Apr-18 13:44 37.173052 -108.232772 50 35048ft 503kts
28-Apr-18 13:45 37.261620 -108.099261 50 35062ft 503kts
28-Apr-18 13:46 37.350193 -107.965181 50 35074ft 503kts
28-Apr-18 13:47 37.438919 -107.830327 50 35074ft 503kts
28-Apr-18 13:48 37.527533 -107.695095 50 35134ft 503kts
28-Apr-18 13:49 37.615843 -107.559740 50 35119ft 502kts
28-Apr-18 13:50 37.704316 -107.423581 50 35157ft 502kts
28-Apr-18 13:51 37.792295 -107.287642 51 35154ft 503kts
28-Apr-18 13:52 37.880450 -107.150924 51 35165ft 503kts
28-Apr-18 13:53 37.968351 -107.013989 51 35111ft 503kts
28-Apr-18 13:54 38.056157 -106.876578 50 35111ft 503kts
28-Apr-18 13:55 38.141369 -106.742715 49 35110ft 501kts
28-Apr-18 13:56 38.228690 -106.605037 49 35111ft 501kts
28-Apr-18 13:57 38.326271 -106.480495 42 35125ft 499kts
28-Apr-18 13:58 38.425608 -106.357607 42 35154ft 499kts
28-Apr-18 13:59 38.523807 -106.235450 43 33474ft 490kts
28-Apr-18 14:00 38.618352 -106.117261 43 31041ft 470kts
28-Apr-18 14:01 38.709565 -106.002755 43 28546ft 457kts
28-Apr-18 14:02 38.798692 -105.890453 43 26051ft 446kts
28-Apr-18 14:03 38.885548 -105.780473 43 23623ft 434kts
28-Apr-18 14:04 38.969506 -105.673583 43 21432ft 419kts
28-Apr-18 14:05 39.050555 -105.570032 43 19246ft 406kts
28-Apr-18 14:06 39.128016 -105.470750 43 17148ft 394kts
28-Apr-18 14:07 39.202652 -105.375096 43 17076ft 380kts
28-Apr-18 14:08 39.264096 -105.269185 74 17062ft 380kts
28-Apr-18 14:09 39.290264 -105.136881 75 17053ft 381kts
28-Apr-18 14:10 39.315011 -105.011023 76 16080ft 338kts
28-Apr-18 14:11 39.337164 -104.898531 78 14647ft 317kts
28-Apr-18 14:12 39.353841 -104.790014 92 13060ft 297kts
28-Apr-18 14:13 39.392957 -104.709509 47 13020ft 254kts
28-Apr-18 14:14 39.452936 -104.663830 1 12587ft 277kts
28-Apr-18 14:15 39.532556 -104.663074 0 11016ft 284kts
28-Apr-18 14:16 39.607422 -104.663299 0 9896ft 255kts
28-Apr-18 14:17 39.672787 -104.662593 1 8586ft 213kts
28-Apr-18 14:18 39.727695 -104.661845 0 7463ft 185kts
28-Apr-18 14:19 39.775939 -104.661191 358 6503ft 164kts
28-Apr-18 14:20 39.821828 -104.660601 356 5607ft 159kts
28-Apr-18 14:21 39.851362 -104.660683 342 5439ft 50kts
28-Apr-18 14:22 39.855565 -104.662340 357 5439ft 19kts
28-Apr-18 14:23 39.860318 -104.663241 329 5439ft 12kts
28-Apr-18 14:24 39.862040 -104.670763 0 5439ft 15kts
28-Apr-18 14:25 39.862500 -104.670768 358 5439ft 0kts
28-Apr-18 14:26 39.862500 -104.670768 358 5439ft 0kts

Navigation Log

Ident Type
Flight plan parsing failed, navigation log unavailable